Terminal Aerodrome Forecast
Issued by NWS Cleveland, OH

Home | Current Version | Previous Version | Graphics & Text | Print | Product List | Glossary On
Versions: 1 2 3 4 5 6 7 8 9 10 11 12 13 14 15 16 17 18 19 20
089
FTUS41 KCLE 141720
TAFYNG
TAF
KYNG 141720Z 1418/1518 19007KT P6SM SKC
     FM150800 20014KT P6SM SCT120 WS020/22040KT
     FM151000 21015KT P6SM BKN025 WS020/22040KT
     FM151200 22015G25KT P6SM BKN030
     FM151600 23020G30KT P6SM BKN035=

USA.gov is the U.S. government's official web portal to all federal, state and local government web resources and services.